sensor_id;sensor_type;location;lat;lon;timestamp;temperature;humidity
12841;DHT22;6487;48.626;12.486;2023-04-25T00:00:06;9.30;99.90
12841;DHT22;6487;48.626;12.486;2023-04-25T00:02:35;9.30;99.90
12841;DHT22;6487;48.626;12.486;2023-04-25T00:05:06;9.20;99.90
12841;DHT22;6487;48.626;12.486;2023-04-25T00:07:43;9.20;99.90
12841;DHT22;6487;48.626;12.486;2023-04-25T00:10:11;9.20;99.90
12841;DHT22;6487;48.626;12.486;2023-04-25T00:12:40;9.20;99.90
12841;DHT22;6487;48.626;12.486;2023-04-25T00:15:09;9.20;99.90
12841;DHT22;6487;48.626;12.486;2023-04-25T00:17:40;9.20;99.90
12841;DHT22;6487;48.626;12.486;2023-04-25T00:20:12;9.10;99.90
12841;DHT22;6487;48.626;12.486;2023-04-25T00:22:40;9.10;99.90
12841;DHT22;6487;48.626;12.486;2023-04-25T00:25:09;9.10;99.90
12841;DHT22;6487;48.626;12.486;2023-04-25T00:27:37;9.10;99.90
12841;DHT22;6487;48.626;12.486;2023-04-25T00:30:06;9.10;99.90
12841;DHT22;6487;48.626;12.486;2023-04-25T00:32:36;9.10;99.90
12841;DHT22;6487;48.626;12.486;2023-04-25T00:35:04;9.10;99.90
12841;DHT22;6487;48.626;12.486;2023-04-25T00:37:35;9.10;99.90
12841;DHT22;6487;48.626;12.486;2023-04-25T00:40:07;9.00;99.90
12841;DHT22;6487;48.626;12.486;2023-04-25T00:42:36;9.00;99.90
12841;DHT22;6487;48.626;12.486;2023-04-25T00:45:13;9.00;99.90
12841;DHT22;6487;48.626;12.486;2023-04-25T00:47:42;9.00;99.90
12841;DHT22;6487;48.626;12.486;2023-04-25T00:50:12;8.90;99.90
12841;DHT22;6487;48.626;12.486;2023-04-25T00:52:45;9.00;99.90
12841;DHT22;6487;48.626;12.486;2023-04-25T00:55:15;9.00;99.90
12841;DHT22;6487;48.626;12.486;2023-04-25T00:57:44;8.90;99.90
12841;DHT22;6487;48.626;12.486;2023-04-25T01:00:14;8.90;99.90
12841;DHT22;6487;48.626;12.486;2023-04-25T01:02:43;8.90;99.90
12841;DHT22;6487;48.626;12.486;2023-04-25T01:05:13;8.90;99.90
12841;DHT22;6487;48.626;12.486;2023-04-25T01:07:41;8.90;99.90
12841;DHT22;6487;48.626;12.486;2023-04-25T01:10:11;8.80;99.90
12841;DHT22;6487;48.626;12.486;2023-04-25T01:12:39;8.80;99.90
12841;DHT22;6487;48.626;12.486;2023-04-25T01:15:08;8.80;99.90
12841;DHT22;6487;48.626;12.486;2023-04-25T01:17:37;8.80;99.90
12841;DHT22;6487;48.626;12.486;2023-04-25T01:20:07;8.80;99.90
12841;DHT22;6487;48.626;12.486;2023-04-25T01:22:38;8.80;99.90
12841;DHT22;6487;48.626;12.486;2023-04-25T01:25:08;8.90;99.90
12841;DHT22;6487;48.626;12.486;2023-04-25T01:27:37;8.90;99.90
12841;DHT22;6487;48.626;12.486;2023-04-25T01:30:07;8.90;99.90
12841;DHT22;6487;48.626;12.486;2023-04-25T01:32:39;8.90;99.90
12841;DHT22;6487;48.626;12.486;2023-04-25T01:35:10;8.90;99.90
12841;DHT22;6487;48.626;12.486;2023-04-25T01:37:42;8.80;99.90
12841;DHT22;6487;48.626;12.486;2023-04-25T01:40:11;8.70;99.90
12841;DHT22;6487;48.626;12.486;2023-04-25T01:42:43;8.70;99.90
12841;DHT22;6487;48.626;12.486;2023-04-25T01:45:12;8.70;99.90
12841;DHT22;6487;48.626;12.486;2023-04-25T01:47:40;8.70;99.90
12841;DHT22;6487;48.626;12.486;2023-04-25T01:50:11;8.70;99.90
12841;DHT22;6487;48.626;12.486;2023-04-25T01:52:43;8.70;99.90
12841;DHT22;6487;48.626;12.486;2023-04-25T01:55:12;8.70;99.90
12841;DHT22;6487;48.626;12.486;2023-04-25T01:57:40;8.60;99.90
12841;DHT22;6487;48.626;12.486;2023-04-25T02:00:10;8.60;99.90
12841;DHT22;6487;48.626;12.486;2023-04-25T02:02:39;8.60;99.90
12841;DHT22;6487;48.626;12.486;2023-04-25T02:05:08;8.50;99.90
12841;DHT22;6487;48.626;12.486;2023-04-25T02:07:36;8.50;99.90
12841;DHT22;6487;48.626;12.486;2023-04-25T02:10:07;8.50;99.90
12841;DHT22;6487;48.626;12.486;2023-04-25T02:12:36;8.50;99.90
12841;DHT22;6487;48.626;12.486;2023-04-25T02:15:08;8.40;99.90
12841;DHT22;6487;48.626;12.486;2023-04-25T02:17:37;8.40;99.90
12841;DHT22;6487;48.626;12.486;2023-04-25T02:20:06;8.30;99.90
12841;DHT22;6487;48.626;12.486;2023-04-25T02:22:35;8.30;99.90
12841;DHT22;6487;48.626;12.486;2023-04-25T02:25:06;8.30;99.90
12841;DHT22;6487;48.626;12.486;2023-04-25T02:27:34;8.30;99.90
12841;DHT22;6487;48.626;12.486;2023-04-25T02:30:04;8.30;99.90
12841;DHT22;6487;48.626;12.486;2023-04-25T02:32:33;8.20;99.90
12841;DHT22;6487;48.626;12.486;2023-04-25T02:35:02;8.20;99.90
12841;DHT22;6487;48.626;12.486;2023-04-25T02:37:31;8.20;99.90
12841;DHT22;6487;48.626;12.486;2023-04-25T02:39:59;8.10;99.90
12841;DHT22;6487;48.626;12.486;2023-04-25T02:42:30;8.10;99.90
12841;DHT22;6487;48.626;12.486;2023-04-25T02:44:58;8.10;99.90
12841;DHT22;6487;48.626;12.486;2023-04-25T02:47:27;8.10;99.90
12841;DHT22;6487;48.626;12.486;2023-04-25T02:49:56;8.10;99.90
12841;DHT22;6487;48.626;12.486;2023-04-25T02:52:24;8.20;99.90
12841;DHT22;6487;48.626;12.486;2023-04-25T02:54:52;8.10;99.90
12841;DHT22;6487;48.626;12.486;2023-04-25T02:57:21;8.20;99.90
12841;DHT22;6487;48.626;12.486;2023-04-25T02:59:50;8.10;99.90
12841;DHT22;6487;48.626;12.486;2023-04-25T03:02:19;8.10;99.90
12841;DHT22;6487;48.626;12.486;2023-04-25T03:04:47;8.10;99.90
12841;DHT22;6487;48.626;12.486;2023-04-25T03:07:16;8.10;99.90
12841;DHT22;6487;48.626;12.486;2023-04-25T03:09:44;8.10;99.90
12841;DHT22;6487;48.626;12.486;2023-04-25T03:12:12;8.10;99.90
12841;DHT22;6487;48.626;12.486;2023-04-25T03:14:41;8.10;99.90
12841;DHT22;6487;48.626;12.486;2023-04-25T03:17:13;8.10;99.90
12841;DHT22;6487;48.626;12.486;2023-04-25T03:19:44;8.10;99.90
12841;DHT22;6487;48.626;12.486;2023-04-25T03:22:13;8.10;99.90
12841;DHT22;6487;48.626;12.486;2023-04-25T03:24:41;8.10;99.90
12841;DHT22;6487;48.626;12.486;2023-04-25T03:27:09;8.10;99.90
12841;DHT22;6487;48.626;12.486;2023-04-25T03:29:38;8.10;99.90
12841;DHT22;6487;48.626;12.486;2023-04-25T03:32:07;8.10;99.90
12841;DHT22;6487;48.626;12.486;2023-04-25T03:34:37;8.10;99.90
12841;DHT22;6487;48.626;12.486;2023-04-25T03:37:05;8.10;99.90
12841;DHT22;6487;48.626;12.486;2023-04-25T03:39:33;8.10;99.90
12841;DHT22;6487;48.626;12.486;2023-04-25T03:42:02;8.10;99.90
12841;DHT22;6487;48.626;12.486;2023-04-25T03:44:30;8.20;99.90
12841;DHT22;6487;48.626;12.486;2023-04-25T03:46:59;8.10;99.90
12841;DHT22;6487;48.626;12.486;2023-04-25T03:49:27;8.20;99.90
12841;DHT22;6487;48.626;12.486;2023-04-25T03:51:56;8.20;99.90
12841;DHT22;6487;48.626;12.486;2023-04-25T03:54:25;8.10;99.90
12841;DHT22;6487;48.626;12.486;2023-04-25T03:56:53;8.10;99.90
12841;DHT22;6487;48.626;12.486;2023-04-25T03:59:21;8.20;99.90
12841;DHT22;6487;48.626;12.486;2023-04-25T04:01:50;8.20;99.90
12841;DHT22;6487;48.626;12.486;2023-04-25T04:04:18;8.10;99.90
12841;DHT22;6487;48.626;12.486;2023-04-25T04:06:47;8.10;99.90
12841;DHT22;6487;48.626;12.486;2023-04-25T04:09:17;8.10;99.90
12841;DHT22;6487;48.626;12.486;2023-04-25T04:11:46;8.10;99.90
12841;DHT22;6487;48.626;12.486;2023-04-25T04:14:17;8.10;99.90
12841;DHT22;6487;48.626;12.486;2023-04-25T04:16:45;8.10;99.90
12841;DHT22;6487;48.626;12.486;2023-04-25T04:19:14;8.10;99.90
12841;DHT22;6487;48.626;12.486;2023-04-25T04:21:45;8.10;99.90
12841;DHT22;6487;48.626;12.486;2023-04-25T04:24:14;8.10;99.90
12841;DHT22;6487;48.626;12.486;2023-04-25T04:26:44;8.20;99.90
12841;DHT22;6487;48.626;12.486;2023-04-25T04:29:13;8.10;99.90
12841;DHT22;6487;48.626;12.486;2023-04-25T04:31:49;8.10;99.90
12841;DHT22;6487;48.626;12.486;2023-04-25T04:34:18;8.10;99.90
12841;DHT22;6487;48.626;12.486;2023-04-25T04:36:47;8.20;99.90
12841;DHT22;6487;48.626;12.486;2023-04-25T04:39:16;8.10;99.90
12841;DHT22;6487;48.626;12.486;2023-04-25T04:41:46;8.10;99.90
12841;DHT22;6487;48.626;12.486;2023-04-25T04:44:14;8.10;99.90
12841;DHT22;6487;48.626;12.486;2023-04-25T04:46:42;8.20;99.90
12841;DHT22;6487;48.626;12.486;2023-04-25T04:49:11;8.20;99.90
12841;DHT22;6487;48.626;12.486;2023-04-25T04:51:40;8.20;99.90
12841;DHT22;6487;48.626;12.486;2023-04-25T04:54:11;8.20;99.90
12841;DHT22;6487;48.626;12.486;2023-04-25T04:56:42;8.20;99.90
12841;DHT22;6487;48.626;12.486;2023-04-25T04:59:15;8.20;99.90
12841;DHT22;6487;48.626;12.486;2023-04-25T05:01:43;8.10;99.90
12841;DHT22;6487;48.626;12.486;2023-04-25T05:04:12;8.20;99.90
12841;DHT22;6487;48.626;12.486;2023-04-25T05:06:41;8.10;99.90
12841;DHT22;6487;48.626;12.486;2023-04-25T05:09:14;8.20;99.90
12841;DHT22;6487;48.626;12.486;2023-04-25T05:11:43;8.20;99.90
12841;DHT22;6487;48.626;12.486;2023-04-25T05:14:12;8.20;99.90
12841;DHT22;6487;48.626;12.486;2023-04-25T05:16:41;8.30;99.90
12841;DHT22;6487;48.626;12.486;2023-04-25T05:19:10;8.40;99.90
12841;DHT22;6487;48.626;12.486;2023-04-25T05:21:38;8.40;99.90
12841;DHT22;6487;48.626;12.486;2023-04-25T05:24:07;8.40;99.90
12841;DHT22;6487;48.626;12.486;2023-04-25T05:26:39;8.50;99.90
12841;DHT22;6487;48.626;12.486;2023-04-25T05:29:07;8.50;99.90
12841;DHT22;6487;48.626;12.486;2023-04-25T05:31:37;8.50;99.90
12841;DHT22;6487;48.626;12.486;2023-04-25T05:34:06;8.50;99.90
12841;DHT22;6487;48.626;12.486;2023-04-25T05:36:34;8.50;99.90
12841;DHT22;6487;48.626;12.486;2023-04-25T05:39:03;8.60;99.90
12841;DHT22;6487;48.626;12.486;2023-04-25T05:41:32;8.60;99.90
12841;DHT22;6487;48.626;12.486;2023-04-25T05:44:00;8.60;99.90
12841;DHT22;6487;48.626;12.486;2023-04-25T05:46:29;8.60;99.90
12841;DHT22;6487;48.626;12.486;2023-04-25T05:48:59;8.70;99.90
12841;DHT22;6487;48.626;12.486;2023-04-25T05:51:27;8.70;99.90
12841;DHT22;6487;48.626;12.486;2023-04-25T05:53:55;8.70;99.90
12841;DHT22;6487;48.626;12.486;2023-04-25T05:56:24;8.80;99.90
12841;DHT22;6487;48.626;12.486;2023-04-25T05:58:52;8.80;99.90
12841;DHT22;6487;48.626;12.486;2023-04-25T06:01:21;8.80;99.90
12841;DHT22;6487;48.626;12.486;2023-04-25T06:03:50;8.90;99.90
12841;DHT22;6487;48.626;12.486;2023-04-25T06:06:21;8.90;99.90
12841;DHT22;6487;48.626;12.486;2023-04-25T06:08:52;9.00;99.90
12841;DHT22;6487;48.626;12.486;2023-04-25T06:11:20;9.10;99.90
12841;DHT22;6487;48.626;12.486;2023-04-25T06:13:49;9.10;99.90
12841;DHT22;6487;48.626;12.486;2023-04-25T06:16:18;8.90;99.90
12841;DHT22;6487;48.626;12.486;2023-04-25T06:18:46;9.10;99.90
12841;DHT22;6487;48.626;12.486;2023-04-25T06:21:15;9.10;99.90
12841;DHT22;6487;48.626;12.486;2023-04-25T06:23:45;9.30;99.90
12841;DHT22;6487;48.626;12.486;2023-04-25T06:26:13;9.30;99.90
12841;DHT22;6487;48.626;12.486;2023-04-25T06:28:41;9.30;99.90
12841;DHT22;6487;48.626;12.486;2023-04-25T06:31:10;9.30;99.90
12841;DHT22;6487;48.626;12.486;2023-04-25T06:33:39;9.40;99.90
12841;DHT22;6487;48.626;12.486;2023-04-25T06:36:07;9.50;99.90
12841;DHT22;6487;48.626;12.486;2023-04-25T06:38:36;9.60;99.90
12841;DHT22;6487;48.626;12.486;2023-04-25T06:41:06;9.90;99.90
12841;DHT22;6487;48.626;12.486;2023-04-25T06:43:34;10.00;99.90
12841;DHT22;6487;48.626;12.486;2023-04-25T06:46:02;10.10;99.90
12841;DHT22;6487;48.626;12.486;2023-04-25T06:48:31;10.10;99.90
12841;DHT22;6487;48.626;12.486;2023-04-25T06:50:59;10.20;99.90
12841;DHT22;6487;48.626;12.486;2023-04-25T06:53:27;10.20;99.90
12841;DHT22;6487;48.626;12.486;2023-04-25T06:55:56;10.30;99.90
12841;DHT22;6487;48.626;12.486;2023-04-25T06:58:26;10.30;99.90
12841;DHT22;6487;48.626;12.486;2023-04-25T07:00:54;10.40;99.90
12841;DHT22;6487;48.626;12.486;2023-04-25T07:03:23;10.30;99.90
12841;DHT22;6487;48.626;12.486;2023-04-25T07:05:51;10.40;99.90
12841;DHT22;6487;48.626;12.486;2023-04-25T07:08:20;10.30;99.90
12841;DHT22;6487;48.626;12.486;2023-04-25T07:10:48;10.40;99.90
12841;DHT22;6487;48.626;12.486;2023-04-25T07:13:17;10.50;99.90
12841;DHT22;6487;48.626;12.486;2023-04-25T07:15:46;10.40;99.90
12841;DHT22;6487;48.626;12.486;2023-04-25T07:18:15;10.40;99.90
12841;DHT22;6487;48.626;12.486;2023-04-25T07:20:43;10.40;99.90
12841;DHT22;6487;48.626;12.486;2023-04-25T07:23:12;10.60;99.90
12841;DHT22;6487;48.626;12.486;2023-04-25T07:25:40;10.60;99.90
12841;DHT22;6487;48.626;12.486;2023-04-25T07:28:08;10.80;99.90
12841;DHT22;6487;48.626;12.486;2023-04-25T07:30:37;10.90;99.90
12841;DHT22;6487;48.626;12.486;2023-04-25T07:33:06;10.80;99.90
12841;DHT22;6487;48.626;12.486;2023-04-25T07:35:35;10.70;99.90
12841;DHT22;6487;48.626;12.486;2023-04-25T07:38:06;10.70;99.90
12841;DHT22;6487;48.626;12.486;2023-04-25T07:40:34;10.50;99.90
12841;DHT22;6487;48.626;12.486;2023-04-25T07:43:03;10.30;99.90
12841;DHT22;6487;48.626;12.486;2023-04-25T07:45:31;10.10;99.90
12841;DHT22;6487;48.626;12.486;2023-04-25T07:48:00;10.10;99.90
12841;DHT22;6487;48.626;12.486;2023-04-25T07:50:29;10.10;99.90
12841;DHT22;6487;48.626;12.486;2023-04-25T07:52:58;10.20;99.90
12841;DHT22;6487;48.626;12.486;2023-04-25T07:55:26;10.20;99.90
12841;DHT22;6487;48.626;12.486;2023-04-25T07:57:55;10.20;99.90
12841;DHT22;6487;48.626;12.486;2023-04-25T08:00:23;10.30;99.90
12841;DHT22;6487;48.626;12.486;2023-04-25T08:02:51;10.40;99.90
12841;DHT22;6487;48.626;12.486;2023-04-25T08:05:20;10.50;99.90
12841;DHT22;6487;48.626;12.486;2023-04-25T08:07:50;10.60;99.90
12841;DHT22;6487;48.626;12.486;2023-04-25T08:10:19;10.70;99.90
12841;DHT22;6487;48.626;12.486;2023-04-25T08:12:47;10.70;99.90
12841;DHT22;6487;48.626;12.486;2023-04-25T08:15:15;10.70;99.90
12841;DHT22;6487;48.626;12.486;2023-04-25T08:17:44;10.80;99.90
12841;DHT22;6487;48.626;12.486;2023-04-25T08:20:12;11.20;99.90
12841;DHT22;6487;48.626;12.486;2023-04-25T08:22:40;11.40;99.90
12841;DHT22;6487;48.626;12.486;2023-04-25T08:25:10;11.40;99.90
12841;DHT22;6487;48.626;12.486;2023-04-25T08:27:38;11.30;99.90
12841;DHT22;6487;48.626;12.486;2023-04-25T08:30:10;11.20;99.90
12841;DHT22;6487;48.626;12.486;2023-04-25T08:32:39;11.30;99.90
12841;DHT22;6487;48.626;12.486;2023-04-25T08:35:08;11.30;99.90
12841;DHT22;6487;48.626;12.486;2023-04-25T08:37:37;11.50;99.90
12841;DHT22;6487;48.626;12.486;2023-04-25T08:40:11;11.80;99.90
12841;DHT22;6487;48.626;12.486;2023-04-25T08:42:43;12.20;99.90
12841;DHT22;6487;48.626;12.486;2023-04-25T08:45:12;12.20;99.70
12841;DHT22;6487;48.626;12.486;2023-04-25T08:47:41;12.50;99.80
12841;DHT22;6487;48.626;12.486;2023-04-25T08:50:11;12.50;99.90
12841;DHT22;6487;48.626;12.486;2023-04-25T08:52:47;12.80;99.20
12841;DHT22;6487;48.626;12.486;2023-04-25T08:55:17;13.20;99.90
12841;DHT22;6487;48.626;12.486;2023-04-25T08:57:46;13.10;98.90
12841;DHT22;6487;48.626;12.486;2023-04-25T09:00:15;13.10;99.10
12841;DHT22;6487;48.626;12.486;2023-04-25T09:02:47;13.20;99.60
12841;DHT22;6487;48.626;12.486;2023-04-25T09:05:16;12.90;98.00
12841;DHT22;6487;48.626;12.486;2023-04-25T09:07:47;13.10;99.60
12841;DHT22;6487;48.626;12.486;2023-04-25T09:10:18;13.50;99.90
12841;DHT22;6487;48.626;12.486;2023-04-25T09:13:02;13.50;97.90
12841;DHT22;6487;48.626;12.486;2023-04-25T09:15:32;13.90;98.30
12841;DHT22;6487;48.626;12.486;2023-04-25T09:18:00;14.20;98.00
12841;DHT22;6487;48.626;12.486;2023-04-25T09:20:29;14.40;97.90
12841;DHT22;6487;48.626;12.486;2023-04-25T09:23:06;14.40;97.40
12841;DHT22;6487;48.626;12.486;2023-04-25T09:25:36;14.10;96.30
12841;DHT22;6487;48.626;12.486;2023-04-25T09:28:06;14.30;96.50
12841;DHT22;6487;48.626;12.486;2023-04-25T09:30:36;14.40;96.90
12841;DHT22;6487;48.626;12.486;2023-04-25T09:33:05;14.60;96.40
12841;DHT22;6487;48.626;12.486;2023-04-25T09:35:39;14.80;97.80
12841;DHT22;6487;48.626;12.486;2023-04-25T09:38:09;15.10;97.50
12841;DHT22;6487;48.626;12.486;2023-04-25T09:40:44;15.20;96.50
12841;DHT22;6487;48.626;12.486;2023-04-25T09:43:19;15.40;96.20
12841;DHT22;6487;48.626;12.486;2023-04-25T09:45:48;15.40;94.10
12841;DHT22;6487;48.626;12.486;2023-04-25T09:48:19;15.40;96.80
12841;DHT22;6487;48.626;12.486;2023-04-25T09:51:04;14.70;97.60
12841;DHT22;6487;48.626;12.486;2023-04-25T09:53:33;14.70;98.80
12841;DHT22;6487;48.626;12.486;2023-04-25T09:56:06;14.50;98.20
12841;DHT22;6487;48.626;12.486;2023-04-25T09:58:36;14.30;98.40
12841;DHT22;6487;48.626;12.486;2023-04-25T10:01:06;14.30;98.20
12841;DHT22;6487;48.626;12.486;2023-04-25T10:03:37;14.10;97.30
12841;DHT22;6487;48.626;12.486;2023-04-25T10:06:11;13.60;97.30
12841;DHT22;6487;48.626;12.486;2023-04-25T10:08:41;13.40;96.00
12841;DHT22;6487;48.626;12.486;2023-04-25T10:11:11;13.70;99.50
12841;DHT22;6487;48.626;12.486;2023-04-25T10:13:43;13.80;98.40
12841;DHT22;6487;48.626;12.486;2023-04-25T10:16:13;14.00;99.00
12841;DHT22;6487;48.626;12.486;2023-04-25T10:18:43;14.30;98.60
12841;DHT22;6487;48.626;12.486;2023-04-25T10:21:12;14.50;97.40
12841;DHT22;6487;48.626;12.486;2023-04-25T10:23:41;14.70;98.30
12841;DHT22;6487;48.626;12.486;2023-04-25T10:26:11;15.00;97.40
12841;DHT22;6487;48.626;12.486;2023-04-25T10:28:57;15.20;96.80
12841;DHT22;6487;48.626;12.486;2023-04-25T10:31:29;14.90;94.30
12841;DHT22;6487;48.626;12.486;2023-04-25T10:34:03;14.70;94.20
12841;DHT22;6487;48.626;12.486;2023-04-25T10:36:32;14.80;94.30
12841;DHT22;6487;48.626;12.486;2023-04-25T10:39:04;14.70;94.90
12841;DHT22;6487;48.626;12.486;2023-04-25T10:41:47;14.70;94.90
12841;DHT22;6487;48.626;12.486;2023-04-25T10:44:16;15.00;96.20
12841;DHT22;6487;48.626;12.486;2023-04-25T10:46:45;14.90;94.40
12841;DHT22;6487;48.626;12.486;2023-04-25T10:49:29;14.80;95.10
12841;DHT22;6487;48.626;12.486;2023-04-25T10:52:18;14.70;95.00
12841;DHT22;6487;48.626;12.486;2023-04-25T10:54:53;14.70;95.20
12841;DHT22;6487;48.626;12.486;2023-04-25T10:57:38;14.00;95.70
12841;DHT22;6487;48.626;12.486;2023-04-25T11:00:17;13.70;96.10
12841;DHT22;6487;48.626;12.486;2023-04-25T11:02:57;13.20;96.70
12841;DHT22;6487;48.626;12.486;2023-04-25T11:05:34;12.80;96.90
12841;DHT22;6487;48.626;12.486;2023-04-25T11:08:37;12.80;97.00
12841;DHT22;6487;48.626;12.486;2023-04-25T11:11:12;12.70;98.20
12841;DHT22;6487;48.626;12.486;2023-04-25T11:13:42;12.60;98.80
12841;DHT22;6487;48.626;12.486;2023-04-25T11:16:10;12.40;99.60
12841;DHT22;6487;48.626;12.486;2023-04-25T11:18:49;12.30;99.90
12841;DHT22;6487;48.626;12.486;2023-04-25T11:21:18;11.90;99.60
12841;DHT22;6487;48.626;12.486;2023-04-25T11:23:46;11.80;99.30
12841;DHT22;6487;48.626;12.486;2023-04-25T11:26:15;11.70;99.90
12841;DHT22;6487;48.626;12.486;2023-04-25T11:28:46;11.90;99.90
12841;DHT22;6487;48.626;12.486;2023-04-25T11:31:14;12.10;99.90
12841;DHT22;6487;48.626;12.486;2023-04-25T11:33:43;12.40;99.90
12841;DHT22;6487;48.626;12.486;2023-04-25T11:36:12;12.40;99.90
12841;DHT22;6487;48.626;12.486;2023-04-25T11:38:40;12.10;99.90
12841;DHT22;6487;48.626;12.486;2023-04-25T11:41:09;12.20;99.90
12841;DHT22;6487;48.626;12.486;2023-04-25T11:43:38;12.30;99.90
12841;DHT22;6487;48.626;12.486;2023-04-25T11:46:10;12.50;99.90
12841;DHT22;6487;48.626;12.486;2023-04-25T11:48:39;12.60;99.90
12841;DHT22;6487;48.626;12.486;2023-04-25T11:51:08;12.60;99.90
12841;DHT22;6487;48.626;12.486;2023-04-25T11:53:40;12.60;99.90
12841;DHT22;6487;48.626;12.486;2023-04-25T11:56:10;12.60;99.90
12841;DHT22;6487;48.626;12.486;2023-04-25T11:59:03;12.70;99.90
12841;DHT22;6487;48.626;12.486;2023-04-25T12:01:36;12.80;99.90
12841;DHT22;6487;48.626;12.486;2023-04-25T12:04:13;12.80;99.50
12841;DHT22;6487;48.626;12.486;2023-04-25T12:06:45;12.50;98.90
12841;DHT22;6487;48.626;12.486;2023-04-25T12:09:16;12.60;99.00
12841;DHT22;6487;48.626;12.486;2023-04-25T12:11:53;12.60;99.40
12841;DHT22;6487;48.626;12.486;2023-04-25T12:14:24;12.60;99.60
12841;DHT22;6487;48.626;12.486;2023-04-25T12:16:57;12.70;99.80
12841;DHT22;6487;48.626;12.486;2023-04-25T12:19:31;12.80;99.60
12841;DHT22;6487;48.626;12.486;2023-04-25T12:22:01;13.00;99.90
12841;DHT22;6487;48.626;12.486;2023-04-25T12:24:34;13.10;99.90
12841;DHT22;6487;48.626;12.486;2023-04-25T12:27:06;13.20;99.20
12841;DHT22;6487;48.626;12.486;2023-04-25T12:29:35;13.20;99.30
12841;DHT22;6487;48.626;12.486;2023-04-25T12:32:16;13.20;98.40
12841;DHT22;6487;48.626;12.486;2023-04-25T12:34:45;13.30;98.20
12841;DHT22;6487;48.626;12.486;2023-04-25T12:37:13;13.50;98.10
12841;DHT22;6487;48.626;12.486;2023-04-25T12:39:42;13.60;98.30
12841;DHT22;6487;48.626;12.486;2023-04-25T12:42:11;13.70;96.80
12841;DHT22;6487;48.626;12.486;2023-04-25T12:44:39;13.60;97.70
12841;DHT22;6487;48.626;12.486;2023-04-25T12:47:08;13.70;96.40
12841;DHT22;6487;48.626;12.486;2023-04-25T12:49:38;13.60;97.10
12841;DHT22;6487;48.626;12.486;2023-04-25T12:52:07;13.60;97.60
12841;DHT22;6487;48.626;12.486;2023-04-25T12:54:35;13.80;97.00
12841;DHT22;6487;48.626;12.486;2023-04-25T12:57:03;13.90;97.90
12841;DHT22;6487;48.626;12.486;2023-04-25T12:59:32;14.10;97.70
12841;DHT22;6487;48.626;12.486;2023-04-25T13:02:00;14.20;96.80
12841;DHT22;6487;48.626;12.486;2023-04-25T13:04:29;14.20;95.80
12841;DHT22;6487;48.626;12.486;2023-04-25T13:06:59;14.00;95.70
12841;DHT22;6487;48.626;12.486;2023-04-25T13:09:28;13.70;96.00
12841;DHT22;6487;48.626;12.486;2023-04-25T13:11:56;13.50;95.10
12841;DHT22;6487;48.626;12.486;2023-04-25T13:14:25;13.10;95.70
12841;DHT22;6487;48.626;12.486;2023-04-25T13:16:54;13.20;95.30
12841;DHT22;6487;48.626;12.486;2023-04-25T13:19:22;13.10;95.80
12841;DHT22;6487;48.626;12.486;2023-04-25T13:21:50;13.00;95.10
12841;DHT22;6487;48.626;12.486;2023-04-25T13:24:20;13.30;95.60
12841;DHT22;6487;48.626;12.486;2023-04-25T13:26:49;13.40;96.00
12841;DHT22;6487;48.626;12.486;2023-04-25T13:29:17;13.40;95.70
12841;DHT22;6487;48.626;12.486;2023-04-25T13:31:46;13.60;95.90
12841;DHT22;6487;48.626;12.486;2023-04-25T13:34:14;13.70;95.70
12841;DHT22;6487;48.626;12.486;2023-04-25T13:36:43;13.40;94.80
12841;DHT22;6487;48.626;12.486;2023-04-25T13:39:12;13.40;95.30
12841;DHT22;6487;48.626;12.486;2023-04-25T13:41:42;13.40;95.00
12841;DHT22;6487;48.626;12.486;2023-04-25T13:44:10;13.40;94.70
12841;DHT22;6487;48.626;12.486;2023-04-25T13:46:38;13.20;94.30
12841;DHT22;6487;48.626;12.486;2023-04-25T13:49:13;13.20;94.10
12841;DHT22;6487;48.626;12.486;2023-04-25T13:51:42;13.20;94.50
12841;DHT22;6487;48.626;12.486;2023-04-25T13:54:10;13.10;95.00
12841;DHT22;6487;48.626;12.486;2023-04-25T13:56:38;13.00;93.90
12841;DHT22;6487;48.626;12.486;2023-04-25T13:59:10;12.90;94.70
12841;DHT22;6487;48.626;12.486;2023-04-25T14:01:38;12.90;94.50
12841;DHT22;6487;48.626;12.486;2023-04-25T14:04:07;12.90;94.90
12841;DHT22;6487;48.626;12.486;2023-04-25T14:06:36;12.90;93.10
12841;DHT22;6487;48.626;12.486;2023-04-25T14:09:05;12.60;91.90
12841;DHT22;6487;48.626;12.486;2023-04-25T14:11:33;12.40;91.90
12841;DHT22;6487;48.626;12.486;2023-04-25T14:14:02;12.40;93.00
12841;DHT22;6487;48.626;12.486;2023-04-25T14:16:32;12.20;92.60
12841;DHT22;6487;48.626;12.486;2023-04-25T14:19:01;12.20;93.60
12841;DHT22;6487;48.626;12.486;2023-04-25T14:21:30;12.20;94.00
12841;DHT22;6487;48.626;12.486;2023-04-25T14:24:00;12.40;94.60
12841;DHT22;6487;48.626;12.486;2023-04-25T14:26:28;12.50;94.90
12841;DHT22;6487;48.626;12.486;2023-04-25T14:28:56;12.40;94.70
12841;DHT22;6487;48.626;12.486;2023-04-25T14:31:25;12.50;95.60
12841;DHT22;6487;48.626;12.486;2023-04-25T14:33:55;12.50;95.50
12841;DHT22;6487;48.626;12.486;2023-04-25T14:36:25;12.60;95.70
12841;DHT22;6487;48.626;12.486;2023-04-25T14:38:54;12.70;96.20
12841;DHT22;6487;48.626;12.486;2023-04-25T14:41:23;12.70;96.00
12841;DHT22;6487;48.626;12.486;2023-04-25T14:43:52;12.60;95.90
12841;DHT22;6487;48.626;12.486;2023-04-25T14:46:20;12.70;96.20
12841;DHT22;6487;48.626;12.486;2023-04-25T14:48:50;12.70;95.90
12841;DHT22;6487;48.626;12.486;2023-04-25T14:51:20;12.90;96.00
12841;DHT22;6487;48.626;12.486;2023-04-25T14:53:48;12.90;95.80
12841;DHT22;6487;48.626;12.486;2023-04-25T14:56:18;12.90;95.60
12841;DHT22;6487;48.626;12.486;2023-04-25T14:58:46;12.90;95.80
12841;DHT22;6487;48.626;12.486;2023-04-25T15:01:15;13.00;95.60
12841;DHT22;6487;48.626;12.486;2023-04-25T15:03:44;13.10;95.80
12841;DHT22;6487;48.626;12.486;2023-04-25T15:06:12;13.00;95.60
12841;DHT22;6487;48.626;12.486;2023-04-25T15:08:42;12.80;96.10
12841;DHT22;6487;48.626;12.486;2023-04-25T15:11:11;12.80;95.80
12841;DHT22;6487;48.626;12.486;2023-04-25T15:13:42;12.80;95.80
12841;DHT22;6487;48.626;12.486;2023-04-25T15:16:11;12.90;95.70
12841;DHT22;6487;48.626;12.486;2023-04-25T15:18:39;13.00;95.80
12841;DHT22;6487;48.626;12.486;2023-04-25T15:21:08;12.90;96.40
12841;DHT22;6487;48.626;12.486;2023-04-25T15:23:36;12.90;97.00
12841;DHT22;6487;48.626;12.486;2023-04-25T15:26:06;12.80;97.30
12841;DHT22;6487;48.626;12.486;2023-04-25T15:28:35;12.80;97.40
12841;DHT22;6487;48.626;12.486;2023-04-25T15:31:04;12.80;97.60
12841;DHT22;6487;48.626;12.486;2023-04-25T15:33:33;12.80;97.40
12841;DHT22;6487;48.626;12.486;2023-04-25T15:36:01;12.80;96.80
12841;DHT22;6487;48.626;12.486;2023-04-25T15:38:32;12.80;97.60
12841;DHT22;6487;48.626;12.486;2023-04-25T15:41:00;12.90;97.60
12841;DHT22;6487;48.626;12.486;2023-04-25T15:43:32;12.90;98.10
12841;DHT22;6487;48.626;12.486;2023-04-25T15:46:04;12.80;98.20
12841;DHT22;6487;48.626;12.486;2023-04-25T15:48:32;12.90;98.50
12841;DHT22;6487;48.626;12.486;2023-04-25T15:51:02;12.90;98.30
12841;DHT22;6487;48.626;12.486;2023-04-25T15:53:30;12.80;97.70